Time;durP1;ratioP1;P1;durP2;ratioP2;P2;SDS_P1;SDS_P2;PMS_P1;PMS_P2;Temp;Humidity;BMP_temperature;BMP_pressure;BME280_temperature;BME280_humidity;BME280_pressure;Samples;Min_cycle;Max_cycle;Signal;HPM_P1;HPM_P2
2023/10/14 00:00:26;;;;;;;1.52;0.45;;;;;;;13.03;100.00;99788.06;10396564;28;20076;-76
2023/10/14 00:05:27;;;;;;;2.53;1.35;;;;;;;12.99;100.00;99806.34;10386734;28;20053;-76
2023/10/14 00:10:33;;;;;;;6.95;1.95;;;;;;;12.99;100.00;99809.09;10392184;28;20045;-76
2023/10/14 00:15:34;;;;;;;4.00;0.70;;;;;;;12.93;100.00;99827.69;10393761;28;20485;-77
2023/10/14 00:20:39;;;;;;;6.03;0.80;;;;;;;12.83;100.00;99849.91;10395435;28;20505;-74
2023/10/14 00:25:40;;;;;;;4.97;0.77;;;;;;;12.76;100.00;99865.19;10378649;28;20057;-77
2023/10/14 00:30:40;;;;;;;5.00;0.88;;;;;;;12.63;100.00;99853.75;10391769;28;20034;-76
2023/10/14 00:35:43;;;;;;;4.80;0.73;;;;;;;12.48;100.00;99875.97;10396754;28;20049;-76
2023/10/14 00:40:46;;;;;;;4.85;0.85;;;;;;;12.11;100.00;99899.47;10396253;28;20041;-78
2023/10/14 00:45:47;;;;;;;7.82;0.93;;;;;;;12.05;100.00;99906.16;10391410;28;20038;-77
2023/10/14 00:50:50;;;;;;;6.15;1.70;;;;;;;11.93;100.00;99916.72;10396236;28;20029;-74
2023/10/14 01:00:57;;;;;;;5.60;1.20;;;;;;;11.81;100.00;99911.56;10398167;28;20033;-76
2023/10/14 01:05:58;;;;;;;7.43;1.15;;;;;;;11.82;100.00;99933.31;10372082;28;20042;-75
2023/10/14 01:11:03;;;;;;;11.07;0.93;;;;;;;11.77;100.00;99938.88;10382123;28;20041;-80
2023/10/14 01:16:08;;;;;;;6.45;1.58;;;;;;;11.62;100.00;99956.34;10396604;28;20058;-76
2023/10/14 01:21:09;;;;;;;9.38;1.42;;;;;;;11.57;100.00;99966.56;10406394;28;20093;-77
2023/10/14 01:26:10;;;;;;;3.88;1.17;;;;;;;11.44;100.00;99979.84;10389057;28;20034;-76
2023/10/14 01:36:34;;;;;;;10.38;2.20;;;;;;;11.29;100.00;99994.50;10395072;28;20052;-76
2023/10/14 01:41:34;;;;;;;7.22;1.05;;;;;;;11.18;100.00;100001.13;10384174;28;20049;-76
2023/10/14 01:46:39;;;;;;;8.73;1.95;;;;;;;11.06;100.00;99995.13;10378408;28;20486;-75
2023/10/14 01:51:40;;;;;;;7.60;1.85;;;;;;;10.92;100.00;100003.13;10404502;28;20034;-75
2023/10/14 01:56:42;;;;;;;7.55;1.13;;;;;;;10.88;100.00;100018.56;10397622;28;20040;-76
2023/10/14 02:01:42;;;;;;;10.57;1.85;;;;;;;10.81;100.00;100031.78;10403425;28;20048;-77
2023/10/14 02:07:01;;;;;;;8.82;1.75;;;;;;;10.77;100.00;100030.69;10381043;28;20530;-77
2023/10/14 02:12:02;;;;;;;11.25;1.75;;;;;;;10.63;100.00;100030.44;10386856;28;20049;-77
2023/10/14 02:17:04;;;;;;;8.43;1.25;;;;;;;10.57;100.00;100048.03;10402302;28;20041;-76
2023/10/14 02:22:09;;;;;;;7.10;1.30;;;;;;;10.47;100.00;100060.69;10396012;28;20404;-77
2023/10/14 02:27:11;;;;;;;16.67;2.13;;;;;;;10.33;100.00;100054.06;10399803;28;20045;-76
2023/10/14 02:32:12;;;;;;;7.88;1.08;;;;;;;10.36;100.00;100081.03;10376938;28;20088;-77
2023/10/14 02:37:13;;;;;;;13.70;1.60;;;;;;;10.32;100.00;100096.44;10399929;28;20463;-75
2023/10/14 02:42:15;;;;;;;8.50;1.55;;;;;;;10.25;100.00;100102.16;10397331;28;20038;-76
2023/10/14 02:47:17;;;;;;;13.35;1.42;;;;;;;10.17;100.00;100115.59;10369310;28;20049;-77
2023/10/14 02:52:18;;;;;;;7.22;1.40;;;;;;;10.08;100.00;100126.31;10398536;28;20029;-76
2023/10/14 02:57:24;;;;;;;6.07;1.67;;;;;;;10.06;100.00;100131.25;10363752;28;20045;-77
2023/10/14 03:02:26;;;;;;;10.93;1.10;;;;;;;9.99;100.00;100147.19;10397454;28;20049;-76
2023/10/14 03:07:28;;;;;;;6.00;1.35;;;;;;;9.99;100.00;100160.94;10391404;28;20281;-77
2023/10/14 03:12:28;;;;;;;4.78;1.25;;;;;;;9.92;100.00;100157.59;10379254;28;20410;-75
2023/10/14 03:17:43;;;;;;;9.38;1.58;;;;;;;9.86;100.00;100170.47;10377729;28;20046;-76
2023/10/14 03:22:44;;;;;;;7.78;1.80;;;;;;;9.89;100.00;100179.00;10395492;28;20045;-76
2023/10/14 03:27:45;;;;;;;7.22;1.73;;;;;;;9.84;100.00;100194.69;10394198;28;20041;-74
2023/10/14 03:32:45;;;;;;;9.30;1.00;;;;;;;9.74;100.00;100206.44;10393062;28;20097;-75
2023/10/14 03:37:52;;;;;;;5.30;0.93;;;;;;;9.80;100.00;100230.13;10403606;28;20042;-73
2023/10/14 03:42:54;;;;;;;9.63;1.45;;;;;;;9.76;100.00;100231.75;10397299;28;20037;-74
2023/10/14 03:48:13;;;;;;;15.07;2.15;;;;;;;9.73;100.00;100239.69;10393243;28;20042;-75
2023/10/14 03:53:13;;;;;;;8.60;1.63;;;;;;;9.65;100.00;100240.97;10395024;28;20041;-74
2023/10/14 03:58:14;;;;;;;9.55;1.08;;;;;;;9.60;100.00;100260.19;10395689;28;20038;-75
2023/10/14 04:03:34;;;;;;;8.77;1.40;;;;;;;9.61;100.00;100261.84;10376279;28;20038;-76
2023/10/14 04:08:50;;;;;;;9.95;1.73;;;;;;;9.47;100.00;100256.81;10383658;28;20044;-76
2023/10/14 04:14:04;;;;;;;8.40;1.33;;;;;;;9.40;100.00;100271.84;10391269;28;20042;-75
2023/10/14 04:19:14;;;;;;;7.75;1.02;;;;;;;9.46;100.00;100304.59;10380399;28;20074;-76
2023/10/14 04:29:34;;;;;;;11.57;2.05;;;;;;;9.39;100.00;100320.47;10383664;28;20061;-75
2023/10/14 04:34:35;;;;;;;7.63;1.83;;;;;;;9.38;100.00;100332.53;10387281;28;20493;-75
2023/10/14 04:39:42;;;;;;;11.93;3.05;;;;;;;9.34;100.00;100331.41;10391988;28;20320;-74
2023/10/14 04:44:59;;;;;;;11.48;1.70;;;;;;;9.24;100.00;100323.06;10395281;28;20056;-73
2023/10/14 04:50:08;;;;;;;7.07;1.30;;;;;;;9.31;100.00;100340.16;10376181;28;20042;-73
2023/10/14 04:55:25;;;;;;;4.63;1.33;;;;;;;9.32;100.00;100344.56;10403185;28;20042;-75
2023/10/14 05:00:31;;;;;;;15.32;1.92;;;;;;;9.34;100.00;100361.63;10396877;28;20042;-75
2023/10/14 05:05:32;;;;;;;19.55;3.08;;;;;;;9.42;100.00;100385.88;10397760;28;20048;-74
2023/10/14 05:10:33;;;;;;;6.75;1.60;;;;;;;9.49;100.00;100386.53;10379944;28;20515;-74
2023/10/14 05:15:39;;;;;;;10.77;1.70;;;;;;;9.57;100.00;100395.38;10381106;28;20068;-73
2023/10/14 05:25:56;;;;;;;15.48;1.73;;;;;;;9.43;100.00;100415.03;10398055;28;20045;-73
2023/10/14 05:31:00;;;;;;;15.07;2.33;;;;;;;9.25;100.00;100407.94;10402886;28;20068;-74
2023/10/14 05:36:05;;;;;;;10.90;1.73;;;;;;;9.20;100.00;100429.88;10382894;28;20064;-76
2023/10/14 05:41:09;;;;;;;10.98;1.92;;;;;;;9.16;100.00;100447.94;10394347;28;20041;-73
2023/10/14 05:46:12;;;;;;;8.73;1.38;;;;;;;9.11;100.00;100455.28;10391636;28;20045;-75
2023/10/14 05:51:15;;;;;;;11.73;1.85;;;;;;;9.02;100.00;100479.63;10400437;28;20041;-75
2023/10/14 05:56:16;;;;;;;5.20;1.58;;;;;;;8.90;100.00;100471.47;10363755;28;20775;-76
2023/10/14 06:01:16;;;;;;;8.63;1.33;;;;;;;8.89;100.00;100500.03;10399385;28;20045;-75
2023/10/14 06:06:21;;;;;;;10.40;1.60;;;;;;;8.88;100.00;100501.94;10398703;28;20060;-77
2023/10/14 06:11:22;;;;;;;14.45;2.75;;;;;;;8.80;100.00;100516.09;10397490;28;20037;-72
2023/10/14 06:16:25;;;;;;;12.30;1.45;;;;;;;8.81;100.00;100533.41;10399039;28;20037;-73
2023/10/14 06:21:29;;;;;;;7.18;1.52;;;;;;;8.77;100.00;100535.00;10400761;28;20421;-75
2023/10/14 06:26:29;;;;;;;8.10;1.33;;;;;;;8.87;100.00;100557.09;10398498;28;20045;-74
2023/10/14 06:31:29;;;;;;;6.55;1.30;;;;;;;8.91;100.00;100563.75;10399395;28;20038;-74
2023/10/14 06:36:30;;;;;;;15.32;2.15;;;;;;;8.99;100.00;100566.09;10385155;28;20042;-74
2023/10/14 06:41:31;;;;;;;10.48;1.70;;;;;;;9.18;100.00;100571.31;10398734;28;20037;-74
2023/10/14 06:46:31;;;;;;;10.45;1.67;;;;;;;9.28;100.00;100577.78;10394902;28;20045;-74
2023/10/14 06:51:32;;;;;;;8.00;1.58;;;;;;;9.35;100.00;100594.06;10402359;28;20052;-75
2023/10/14 06:56:33;;;;;;;15.52;2.60;;;;;;;9.41;100.00;100604.03;10394640;28;20034;-72
2023/10/14 07:01:34;;;;;;;5.88;1.35;;;;;;;9.52;100.00;100613.25;10393909;28;20041;-74
2023/10/14 07:06:37;;;;;;;6.07;1.00;;;;;;;9.60;100.00;100628.47;10400901;28;20040;-75
2023/10/14 07:11:39;;;;;;;8.80;1.60;;;;;;;9.63;100.00;100637.06;10393651;28;20152;-76
2023/10/14 07:16:40;;;;;;;9.15;1.50;;;;;;;9.76;100.00;100649.59;10398927;28;20105;-73
2023/10/14 07:21:40;;;;;;;13.25;2.22;;;;;;;9.87;100.00;100650.56;10393401;28;20044;-74
2023/10/14 07:26:41;;;;;;;10.02;1.98;;;;;;;9.94;100.00;100648.44;10398863;28;20044;-74
2023/10/14 07:31:44;;;;;;;6.13;1.52;;;;;;;10.02;100.00;100649.91;10394913;28;20038;-74
2023/10/14 07:36:44;;;;;;;7.15;1.38;;;;;;;10.08;100.00;100665.38;10377766;28;20038;-75
2023/10/14 07:41:45;;;;;;;10.48;1.95;;;;;;;10.22;100.00;100665.84;10395333;28;20038;-71
2023/10/14 07:46:46;;;;;;;12.82;1.40;;;;;;;10.35;100.00;100673.72;10396268;28;20045;-73
2023/10/14 07:51:47;;;;;;;10.63;1.40;;;;;;;10.57;100.00;100681.13;10397456;28;20056;-73
2023/10/14 07:56:47;;;;;;;11.25;1.25;;;;;;;10.67;100.00;100693.06;10382535;28;20040;-72
2023/10/14 08:01:48;;;;;;;11.10;1.80;;;;;;;10.81;100.00;100699.00;10379242;28;20562;-77
2023/10/14 08:06:48;;;;;;;11.00;1.70;;;;;;;10.99;100.00;100706.03;10398359;28;20037;-72
2023/10/14 08:11:50;;;;;;;7.63;2.50;;;;;;;11.14;100.00;100713.63;10391006;28;20034;-76
2023/10/14 08:16:50;;;;;;;9.90;1.88;;;;;;;11.22;100.00;100723.31;10392344;28;20034;-74
2023/10/14 08:21:51;;;;;;;10.18;1.52;;;;;;;11.23;100.00;100730.50;10391988;28;20030;-75
2023/10/14 08:26:51;;;;;;;8.60;1.83;;;;;;;11.34;100.00;100728.66;10381191;28;20056;-76
2023/10/14 08:31:53;;;;;;;11.15;1.20;;;;;;;11.41;100.00;100741.16;10384195;28;20042;-74
2023/10/14 08:36:56;;;;;;;6.63;0.88;;;;;;;11.49;100.00;100742.56;10379882;28;20048;-73
2023/10/14 08:41:57;;;;;;;6.68;1.80;;;;;;;11.60;100.00;100749.00;10371525;28;20046;-75
2023/10/14 08:46:59;;;;;;;7.72;1.25;;;;;;;11.64;100.00;100747.38;10375667;28;20049;-74
2023/10/14 08:52:01;;;;;;;10.43;1.38;;;;;;;11.65;100.00;100749.84;10373599;28;20041;-76
2023/10/14 08:57:01;;;;;;;7.35;1.23;;;;;;;11.80;100.00;100771.22;10378450;28;20041;-73
2023/10/14 09:02:02;;;;;;;7.40;1.50;;;;;;;11.85;100.00;100767.66;10392164;28;20580;-74
2023/10/14 09:07:03;;;;;;;6.20;1.00;;;;;;;12.01;100.00;100783.25;10375506;28;20052;-72
2023/10/14 09:12:11;;;;;;;4.75;0.90;;;;;;;12.14;100.00;100787.47;10371815;28;20053;-75
2023/10/14 09:17:12;;;;;;;9.52;1.45;;;;;;;12.35;100.00;100793.91;10360651;28;20052;-74
2023/10/14 09:22:28;;;;;;;9.50;2.05;;;;;;;12.43;100.00;100785.13;10382704;28;20042;-73
2023/10/14 09:27:31;;;;;;;7.83;1.17;;;;;;;12.68;100.00;100792.69;10384042;28;20053;-72
2023/10/14 09:32:32;;;;;;;11.63;1.40;;;;;;;12.86;100.00;100796.06;10395172;28;20062;-74
2023/10/14 09:37:32;;;;;;;6.50;1.58;;;;;;;13.08;100.00;100785.63;10394666;28;20081;-74
2023/10/14 09:42:33;;;;;;;8.40;1.63;;;;;;;13.38;100.00;100797.03;10399472;28;20041;-75
2023/10/14 09:47:33;;;;;;;7.20;0.95;;;;;;;14.10;100.00;100786.78;10397447;28;20073;-75
2023/10/14 09:52:33;;;;;;;9.25;1.17;;;;;;;14.05;100.00;100797.84;10402713;28;20493;-75
2023/10/14 09:57:34;;;;;;;6.38;1.17;;;;;;;13.42;100.00;100837.69;10372433;28;20041;-74
2023/10/14 10:02:34;;;;;;;6.88;1.38;;;;;;;12.49;100.00;100849.50;10391796;28;20069;-75
2023/10/14 10:08:04;;;;;;;5.28;0.90;;;;;;;12.62;100.00;100865.56;10391367;28;20510;-73
2023/10/14 10:13:05;;;;;;;7.03;1.23;;;;;;;12.71;100.00;100869.50;10393145;28;20042;-74
2023/10/14 10:18:12;;;;;;;7.43;1.30;;;;;;;12.96;100.00;100873.47;10400194;28;20053;-78
2023/10/14 10:23:14;;;;;;;10.20;1.13;;;;;;;13.32;100.00;100851.50;10396986;28;20041;-75
2023/10/14 10:28:27;;;;;;;6.68;1.42;;;;;;;13.47;100.00;100864.53;10401683;28;20044;-76
2023/10/14 10:33:52;;;;;;;6.40;1.80;;;;;;;12.93;100.00;100876.78;10398833;28;20494;-74
2023/10/14 10:38:56;;;;;;;6.25;1.30;;;;;;;12.82;100.00;100883.38;10388152;28;20046;-79
2023/10/14 10:44:00;;;;;;;7.82;1.98;;;;;;;12.14;100.00;100914.41;10400155;28;20084;-73
2023/10/14 10:49:01;;;;;;;11.57;1.27;;;;;;;11.57;100.00;100909.44;10352555;28;20114;-72
2023/10/14 10:54:01;;;;;;;3.83;0.60;;;;;;;11.80;100.00;100905.53;10397327;28;20099;-73
2023/10/14 10:59:04;;;;;;;3.85;0.90;;;;;;;12.49;100.00;100893.69;10397769;28;20041;-71
2023/10/14 11:04:08;;;;;;;5.97;1.00;;;;;;;13.05;100.00;100895.91;10387025;28;20077;-73
2023/10/14 11:09:12;;;;;;;6.38;0.80;;;;;;;13.47;100.00;100875.59;10397748;28;20048;-72
2023/10/14 11:14:20;;;;;;;6.93;0.70;;;;;;;14.10;100.00;100884.50;10396699;28;20046;-72
2023/10/14 11:19:21;;;;;;;4.00;1.05;;;;;;;14.27;100.00;100884.19;10395168;28;20685;-74
2023/10/14 11:24:21;;;;;;;5.25;1.35;;;;;;;14.24;100.00;100867.28;10397455;28;20041;-72
2023/10/14 11:29:26;;;;;;;7.75;0.80;;;;;;;14.50;100.00;100866.13;10378444;28;20053;-70
2023/10/14 11:34:34;;;;;;;11.50;1.45;;;;;;;15.20;100.00;100884.75;10381667;28;20046;-71
2023/10/14 11:39:36;;;;;;;8.77;1.08;;;;;;;14.00;100.00;100972.25;10384379;28;20075;-70
2023/10/14 11:44:37;;;;;;;3.22;0.60;;;;;;;11.22;100.00;100969.41;10382367;28;20105;-71
2023/10/14 11:49:37;;;;;;;5.80;1.67;;;;;;;10.18;100.00;100979.16;10390208;28;20038;-70
2023/10/14 11:54:41;;;;;;;7.20;1.30;;;;;;;9.82;100.00;100978.53;10389913;28;20038;-72
2023/10/14 11:59:41;;;;;;;7.85;1.15;;;;;;;9.81;100.00;100992.50;10397622;28;20046;-71
2023/10/14 12:04:43;;;;;;;5.30;1.00;;;;;;;9.76;100.00;101007.00;10401877;28;20045;-72
2023/10/14 12:09:44;;;;;;;12.43;2.40;;;;;;;9.73;100.00;101007.47;10401706;28;20057;-72
2023/10/14 12:14:44;;;;;;;14.25;2.50;;;;;;;9.80;100.00;101013.69;10398957;28;20485;-73
2023/10/14 12:19:45;;;;;;;7.07;1.52;;;;;;;9.85;100.00;101016.50;10400692;28;20045;-73
2023/10/14 12:24:47;;;;;;;11.05;1.77;;;;;;;10.48;100.00;101020.16;10400087;28;20041;-73
2023/10/14 12:29:48;;;;;;;11.70;1.73;;;;;;;11.38;100.00;101014.53;10389897;28;20038;-73
2023/10/14 12:34:49;;;;;;;14.65;1.67;;;;;;;12.62;100.00;101003.69;10393547;28;20042;-73
2023/10/14 12:39:53;;;;;;;8.45;1.02;;;;;;;13.73;100.00;101012.03;10398608;28;20046;-73
2023/10/14 12:44:53;;;;;;;7.53;1.30;;;;;;;13.16;100.00;101013.69;10387937;28;20037;-73
2023/10/14 12:49:54;;;;;;;16.73;1.70;;;;;;;12.50;100.00;101038.94;10393077;28;20041;-73
2023/10/14 12:54:54;;;;;;;8.20;2.03;;;;;;;11.52;100.00;101012.25;10395659;28;20394;-75
2023/10/14 12:59:55;;;;;;;10.75;1.40;;;;;;;11.14;100.00;101018.63;10395938;28;20038;-71
2023/10/14 13:04:55;;;;;;;12.85;1.92;;;;;;;12.42;100.00;101031.13;10390867;28;20076;-71
2023/10/14 13:09:56;;;;;;;7.53;1.30;;;;;;;13.75;100.00;101009.00;10396179;28;20042;-73
2023/10/14 13:14:57;;;;;;;6.45;1.13;;;;;;;14.74;100.00;100987.50;10403465;28;20115;-77
2023/10/14 13:19:58;;;;;;;6.97;1.35;;;;;;;15.30;100.00;100981.78;10399070;28;20042;-74
2023/10/14 13:24:58;;;;;;;6.43;1.67;;;;;;;15.07;100.00;100968.56;10406047;28;20037;-77
2023/10/14 13:29:59;;;;;;;6.03;1.52;;;;;;;15.37;100.00;100981.47;10402153;28;20041;-74
2023/10/14 13:35:00;;;;;;;8.05;1.45;;;;;;;15.46;100.00;100971.47;10385924;28;20037;-76
2023/10/14 13:40:01;;;;;;;7.78;1.02;;;;;;;14.17;100.00;101014.34;10403065;28;20041;-74
2023/10/14 13:45:01;;;;;;;3.50;0.90;;;;;;;12.72;100.00;101014.81;10398793;28;20049;-68
2023/10/14 13:50:02;;;;;;;4.50;1.00;;;;;;;12.99;100.00;100988.19;10402574;28;20084;-72
2023/10/14 13:55:04;;;;;;;9.00;1.60;;;;;;;12.54;100.00;101045.59;10400342;28;20499;-70
2023/10/14 14:00:07;;;;;;;5.85;1.35;;;;;;;11.95;100.00;101042.81;10393815;28;20038;-73
2023/10/14 14:05:08;;;;;;;5.72;0.60;;;;;;;12.93;100.00;101034.28;10397296;28;20045;-70
2023/10/14 14:10:13;;;;;;;6.28;1.48;;;;;;;14.08;100.00;101032.59;10400517;28;20095;-73
2023/10/14 14:15:14;;;;;;;9.77;1.77;;;;;;;15.08;100.00;101026.50;10399522;28;20034;-73
2023/10/14 14:20:16;;;;;;;8.52;1.45;;;;;;;14.95;100.00;100999.38;10400729;28;20114;-69
2023/10/14 14:25:16;;;;;;;3.63;0.95;;;;;;;14.64;100.00;101043.75;10398693;28;20116;-72
2023/10/14 14:30:17;;;;;;;9.35;1.40;;;;;;;13.11;100.00;101072.53;10388587;28;20038;-71
2023/10/14 14:35:17;;;;;;;7.88;1.55;;;;;;;12.11;100.00;101091.56;10395606;28;20042;-77
2023/10/14 14:40:23;;;;;;;11.07;2.35;;;;;;;12.08;100.00;101083.81;10395574;28;20427;-75
2023/10/14 14:45:24;;;;;;;5.13;1.30;;;;;;;12.88;100.00;101061.91;10400919;28;20045;-74
2023/10/14 14:50:29;;;;;;;6.47;1.02;;;;;;;13.51;100.00;101082.19;10394127;28;20046;-73
2023/10/14 14:55:30;;;;;;;8.30;1.25;;;;;;;13.51;100.00;101076.66;10394006;28;20054;-73
2023/10/14 15:00:31;;;;;;;6.05;1.75;;;;;;;13.27;100.00;101103.03;10391706;28;20053;-75
2023/10/14 15:05:37;;;;;;;7.25;1.17;;;;;;;12.29;100.00;101159.38;10393143;28;20072;-74
2023/10/14 15:10:42;;;;;;;5.32;1.15;;;;;;;10.26;100.00;101154.84;10382908;28;20040;-77
2023/10/14 15:15:43;;;;;;;8.75;1.23;;;;;;;9.81;100.00;101158.31;10396367;28;20914;-73
2023/10/14 15:20:45;;;;;;;8.82;2.50;;;;;;;9.60;100.00;101161.72;10400683;28;20042;-80
2023/10/14 15:25:46;;;;;;;11.10;1.55;;;;;;;9.40;100.00;101168.41;10376114;28;20046;-81
2023/10/14 15:30:46;;;;;;;9.68;2.75;;;;;;;9.29;100.00;101170.09;10396629;28;20038;-80
2023/10/14 15:35:47;;;;;;;5.47;1.52;;;;;;;9.26;100.00;101167.84;10388120;28;20049;-79
2023/10/14 15:40:51;;;;;;;7.57;1.25;;;;;;;9.11;100.00;101167.44;10397968;28;20319;-80
2023/10/14 15:45:57;;;;;;;7.95;1.65;;;;;;;9.16;100.00;101161.25;10396520;28;20041;-81
2023/10/14 15:50:58;;;;;;;8.93;1.80;;;;;;;9.28;100.00;101164.81;10391462;28;20056;-83
2023/10/14 15:56:02;;;;;;;10.25;1.40;;;;;;;9.26;100.00;101161.47;10399075;28;20516;-84
2023/10/14 16:01:03;;;;;;;9.60;2.28;;;;;;;9.30;100.00;101168.16;10398536;28;20045;-75
2023/10/14 16:06:04;;;;;;;10.20;1.58;;;;;;;9.32;100.00;101171.50;10386325;28;20480;-78
2023/10/14 16:11:04;;;;;;;6.05;1.27;;;;;;;9.27;100.00;101190.63;10394456;28;20053;-81
2023/10/14 16:16:04;;;;;;;8.40;1.92;;;;;;;9.32;100.00;101176.19;10400352;28;20041;-80
2023/10/14 16:21:05;;;;;;;12.80;1.45;;;;;;;9.27;100.00;101185.16;10399286;28;20072;-68
2023/10/14 16:26:08;;;;;;;6.30;1.00;;;;;;;9.19;100.00;101183.56;10398219;28;20496;-79
2023/10/14 16:31:10;;;;;;;8.57;1.00;;;;;;;9.03;100.00;101184.28;10394791;28;20112;-79
2023/10/14 16:36:16;;;;;;;4.03;1.00;;;;;;;9.03;100.00;101195.25;10394783;28;20037;-80
2023/10/14 16:41:16;;;;;;;3.22;1.00;;;;;;;8.92;100.00;101201.56;10396638;28;20041;-76
2023/10/14 16:46:17;;;;;;;12.45;1.27;;;;;;;8.83;100.00;101206.56;10396622;28;20045;-79
2023/10/14 16:51:18;;;;;;;4.38;1.08;;;;;;;8.85;100.00;101215.41;10391564;28;20037;-78
2023/10/14 16:56:21;;;;;;;6.63;1.48;;;;;;;8.71;100.00;101211.19;10395971;28;20041;-78
2023/10/14 17:01:22;;;;;;;8.27;1.75;;;;;;;8.58;100.00;101237.75;10397099;28;20042;-80
2023/10/14 17:06:23;;;;;;;5.57;1.60;;;;;;;8.48;100.00;101241.03;10394722;28;20045;-78
2023/10/14 17:11:24;;;;;;;16.25;3.55;;;;;;;8.59;100.00;101258.63;10396708;28;20056;-79
2023/10/14 17:16:25;;;;;;;7.20;2.17;;;;;;;8.74;100.00;101274.69;10394791;28;20049;-84
2023/10/14 17:21:25;;;;;;;8.57;2.58;;;;;;;8.62;100.00;101269.16;10395983;28;20053;-79
2023/10/14 17:26:27;;;;;;;8.25;1.52;;;;;;;8.51;100.00;101286.38;10382977;28;20056;-77
2023/10/14 17:31:28;;;;;;;11.85;2.08;;;;;;;8.36;100.00;101283.19;10397624;28;20121;-77
2023/10/14 17:36:28;;;;;;;13.40;2.42;;;;;;;8.34;100.00;101290.81;10393352;28;20087;-77
2023/10/14 17:41:29;;;;;;;8.27;2.42;;;;;;;8.34;100.00;101280.66;10395755;28;20049;-78
2023/10/14 17:46:34;;;;;;;10.02;2.00;;;;;;;8.39;100.00;101307.41;10394051;28;20053;-78
2023/10/14 17:51:36;;;;;;;11.80;2.75;;;;;;;8.32;100.00;101291.03;10394804;28;20045;-78
2023/10/14 17:56:38;;;;;;;11.20;2.45;;;;;;;8.19;100.00;101277.47;10403986;28;20038;-75
2023/10/14 18:01:38;;;;;;;7.95;1.55;;;;;;;8.14;100.00;101286.38;10402610;28;20038;-79
2023/10/14 18:06:39;;;;;;;10.70;1.73;;;;;;;8.09;100.00;101294.47;10401324;28;20045;-78
2023/10/14 18:11:44;;;;;;;8.77;2.65;;;;;;;8.02;100.00;101299.16;10401815;28;20033;-78
2023/10/14 18:16:44;;;;;;;9.73;1.73;;;;;;;7.94;100.00;101294.81;10389930;28;20398;-76
2023/10/14 18:21:45;;;;;;;7.38;1.80;;;;;;;7.93;100.00;101295.03;10382202;28;20030;-76
2023/10/14 18:26:47;;;;;;;9.05;1.58;;;;;;;7.94;100.00;101297.56;10402480;28;20075;-79
2023/10/14 18:31:47;;;;;;;10.88;2.08;;;;;;;7.99;100.00;101307.84;10404847;28;20104;-76
2023/10/14 18:36:48;;;;;;;11.68;1.77;;;;;;;7.99;100.00;101305.94;10399603;28;20037;-75
2023/10/14 18:41:48;;;;;;;11.02;2.20;;;;;;;8.06;100.00;101294.88;10394975;28;20120;-77
2023/10/14 18:46:49;;;;;;;11.32;1.45;;;;;;;8.07;100.00;101293.84;10382310;28;20042;-76
2023/10/14 18:51:50;;;;;;;6.65;1.63;;;;;;;7.91;100.00;101286.22;10388940;28;20053;-76
2023/10/14 18:56:53;;;;;;;6.20;1.45;;;;;;;7.87;100.00;101300.38;10395654;28;20057;-76
2023/10/14 19:01:53;;;;;;;11.02;2.22;;;;;;;7.86;100.00;101322.53;10395585;28;20029;-76
2023/10/14 19:06:54;;;;;;;7.60;2.67;;;;;;;7.73;100.00;101334.47;10387748;28;20049;-77
2023/10/14 19:11:55;;;;;;;11.45;1.23;;;;;;;7.69;100.00;101341.44;10393866;28;20042;-73
2023/10/14 19:16:56;;;;;;;7.50;1.40;;;;;;;7.62;100.00;101343.41;10398951;28;20038;-74
2023/10/14 19:21:56;;;;;;;10.60;2.70;;;;;;;7.52;100.00;101348.53;10397904;28;20453;-76
2023/10/14 19:26:57;;;;;;;7.38;2.50;;;;;;;7.46;100.00;101345.63;10398037;28;20062;-73
2023/10/14 19:31:58;;;;;;;15.73;2.38;;;;;;;7.54;100.00;101351.88;10374165;28;20057;-69
2023/10/14 19:37:01;;;;;;;13.57;2.17;;;;;;;7.41;100.00;101405.72;10355203;28;20073;-71
2023/10/14 19:42:02;;;;;;;10.32;1.98;;;;;;;6.81;100.00;101367.69;10356443;28;20048;-75
2023/10/14 19:47:02;;;;;;;6.22;1.92;;;;;;;6.54;100.00;101358.75;10397498;28;20038;-79
2023/10/14 19:52:03;;;;;;;6.38;1.42;;;;;;;6.36;100.00;101364.06;10400102;28;20065;-77
2023/10/14 19:57:05;;;;;;;6.90;1.52;;;;;;;6.29;100.00;101374.19;10396130;28;20037;-76
2023/10/14 20:02:05;;;;;;;9.55;1.63;;;;;;;6.21;100.00;101365.16;10397949;28;20493;-77
2023/10/14 20:07:08;;;;;;;6.63;1.38;;;;;;;5.44;100.00;101277.34;10398142;28;20068;-76
2023/10/14 20:12:09;;;;;;;12.38;2.33;;;;;;;6.13;100.00;101400.91;10403075;28;20042;-76
2023/10/14 20:17:09;;;;;;;10.00;4.22;;;;;;;6.06;100.00;101402.81;10397692;28;20041;-77
2023/10/14 20:22:10;;;;;;;13.90;6.90;;;;;;;5.98;100.00;101397.56;10398898;28;20049;-76
2023/10/14 20:27:10;;;;;;;12.93;4.95;;;;;;;5.87;100.00;101412.69;10390765;28;20138;-76
2023/10/14 20:32:11;;;;;;;10.15;2.40;;;;;;;5.75;100.00;101414.38;10397786;28;20048;-77
2023/10/14 20:37:12;;;;;;;9.88;3.10;;;;;;;5.71;100.00;101419.41;10396286;28;20091;-76
2023/10/14 20:42:12;;;;;;;8.35;2.03;;;;;;;5.67;100.00;101418.13;10395124;28;20048;-76
2023/10/14 20:47:13;;;;;;;5.10;1.92;;;;;;;5.72;100.00;101410.13;10396121;28;20041;-70
2023/10/14 20:52:13;;;;;;;10.63;2.05;;;;;;;5.77;100.00;101412.25;10397753;28;20056;-75
2023/10/14 20:57:14;;;;;;;12.48;2.03;;;;;;;5.71;100.00;101424.84;10380079;28;20038;-76
2023/10/14 21:02:14;;;;;;;10.05;1.42;;;;;;;5.66;100.00;101433.69;10371804;28;20038;-75
2023/10/14 21:07:15;;;;;;;7.50;1.83;;;;;;;5.65;100.00;101442.09;10392322;28;20072;-72
2023/10/14 21:12:15;;;;;;;19.77;1.88;;;;;;;5.61;100.00;101443.53;10381426;28;20038;-72
2023/10/14 21:17:16;;;;;;;7.28;1.88;;;;;;;5.64;100.00;101435.78;10391487;28;20045;-72
2023/10/14 21:22:16;;;;;;;7.70;1.80;;;;;;;5.70;100.00;101458.69;10397301;28;20068;-72
2023/10/14 21:27:18;;;;;;;7.90;1.40;;;;;;;5.95;100.00;101497.19;10395982;28;20049;-72
2023/10/14 21:32:20;;;;;;;9.93;1.15;;;;;;;6.17;100.00;101439.63;10389991;28;20045;-73
2023/10/14 21:37:24;;;;;;;4.50;1.08;;;;;;;6.15;100.00;101439.81;10399206;28;20062;-72
2023/10/14 21:42:25;;;;;;;2.92;0.77;;;;;;;6.03;100.00;101427.84;10384299;28;20068;-74
2023/10/14 21:47:26;;;;;;;6.25;1.02;;;;;;;6.00;100.00;101444.66;10385703;28;20038;-74
2023/10/14 21:52:27;;;;;;;11.45;1.08;;;;;;;5.90;100.00;101436.00;10391038;28;20044;-73
2023/10/14 21:57:27;;;;;;;7.47;1.27;;;;;;;5.95;100.00;101433.50;10395512;28;20437;-73
2023/10/14 22:02:28;;;;;;;6.88;1.48;;;;;;;5.88;100.00;101443.59;10397228;28;20049;-72
2023/10/14 22:07:31;;;;;;;2.83;1.20;;;;;;;5.91;100.00;101426.75;10374525;28;20042;-72
2023/10/14 22:12:32;;;;;;;13.45;4.53;;;;;;;5.91;100.00;101418.56;10375800;28;20050;-73
2023/10/14 22:17:33;;;;;;;7.88;1.85;;;;;;;5.75;100.00;101428.03;10389488;28;20449;-73
2023/10/14 22:22:33;;;;;;;6.10;1.13;;;;;;;5.61;100.00;101435.34;10406273;28;20492;-72
2023/10/14 22:27:34;;;;;;;5.50;1.80;;;;;;;5.54;100.00;101427.16;10400753;28;20042;-72
2023/10/14 22:32:39;;;;;;;5.80;1.17;;;;;;;5.45;100.00;101425.66;10398301;28;20042;-73
2023/10/14 22:37:39;;;;;;;9.07;1.65;;;;;;;5.40;100.00;101428.16;10403215;28;20090;-73
2023/10/14 22:42:40;;;;;;;7.63;1.63;;;;;;;5.32;100.00;101426.47;10380220;28;20034;-73
2023/10/14 22:47:41;;;;;;;12.75;1.83;;;;;;;5.26;100.00;101421.81;10370646;28;20045;-73
2023/10/14 22:52:42;;;;;;;8.80;2.88;;;;;;;5.24;100.00;101413.00;10405261;28;20037;-73
2023/10/14 22:57:46;;;;;;;4.93;1.73;;;;;;;5.28;100.00;101424.34;10390857;28;20057;-73
2023/10/14 23:02:56;;;;;;;14.43;3.15;;;;;;;5.39;100.00;101430.03;10403016;28;20045;-73
2023/10/14 23:07:58;;;;;;;7.80;1.40;;;;;;;5.49;100.00;101442.47;10399345;28;20049;-75
2023/10/14 23:12:58;;;;;;;9.02;2.58;;;;;;;5.56;100.00;101421.47;10395924;28;20041;-73
2023/10/14 23:17:59;;;;;;;5.85;1.60;;;;;;;5.55;100.00;101436.19;10399982;28;20045;-72